createdAt,value
2024-01-16T00:00:25.570Z,1629.00
2024-01-16T00:01:25.672Z,1630.00
2024-01-16T00:02:25.745Z,1628.00
2024-01-16T00:03:25.744Z,1630.00
2024-01-16T00:04:25.728Z,1626.00
2024-01-16T00:05:25.835Z,1624.00
2024-01-16T00:06:25.846Z,1623.00
2024-01-16T00:07:25.846Z,1622.00
2024-01-16T00:08:26.381Z,1619.00
2024-01-16T00:09:25.973Z,1618.00
2024-01-16T00:10:26.021Z,1617.00
2024-01-16T00:11:26.083Z,1619.00
2024-01-16T00:12:26.148Z,1618.00
2024-01-16T00:13:26.140Z,1615.00
2024-01-16T00:14:26.239Z,1610.00
2024-01-16T00:15:26.262Z,1612.00
2024-01-16T00:16:26.320Z,1612.00
2024-01-16T00:17:26.453Z,1615.00
2024-01-16T00:18:26.606Z,1613.00
2024-01-16T00:19:26.562Z,1613.00
2024-01-16T00:20:26.640Z,1613.00
2024-01-16T00:21:26.598Z,1609.00
2024-01-16T00:22:26.635Z,1612.00
2024-01-16T00:23:26.715Z,1613.00
2024-01-16T00:24:26.719Z,1610.00
2024-01-16T00:25:26.796Z,1610.00
2024-01-16T00:26:26.856Z,1609.00
2024-01-16T00:27:26.864Z,1607.00
2024-01-16T00:28:26.965Z,1606.00
2024-01-16T00:29:27.462Z,1604.00
2024-01-16T00:30:27.169Z,1606.00
2024-01-16T00:31:27.125Z,1607.00
2024-01-16T00:32:27.294Z,1603.00
2024-01-16T00:33:27.365Z,1599.00
2024-01-16T00:34:27.346Z,1595.00
2024-01-16T00:35:27.376Z,1595.00
2024-01-16T00:36:27.429Z,1596.00
2024-01-16T00:37:27.464Z,1592.00
2024-01-16T00:38:27.571Z,1591.00
2024-01-16T00:39:27.585Z,1586.00
2024-01-16T00:40:27.672Z,1586.00
2024-01-16T00:41:27.811Z,1587.00
2024-01-16T00:42:27.787Z,1584.00
2024-01-16T00:43:27.841Z,1579.00
2024-01-16T00:44:27.965Z,1576.00
2024-01-16T00:45:27.966Z,1576.00
2024-01-16T00:46:28.005Z,1574.00
2024-01-16T00:47:28.134Z,1573.00
2024-01-16T00:48:28.224Z,1571.00
2024-01-16T00:49:28.227Z,1569.00
2024-01-16T00:50:28.296Z,1564.00
2024-01-16T00:51:28.353Z,1564.00
2024-01-16T00:52:28.420Z,1564.00
2024-01-16T00:53:28.475Z,1564.00
2024-01-16T00:54:28.551Z,1565.00
2024-01-16T00:55:28.599Z,1561.00
2024-01-16T00:56:28.658Z,1560.00
2024-01-16T00:57:28.733Z,1561.00
2024-01-16T00:58:28.793Z,1557.00
2024-01-16T00:59:28.941Z,1559.00
2024-01-16T01:00:28.940Z,1559.00
2024-01-16T01:01:29.050Z,1560.00
2024-01-16T01:02:29.108Z,1561.00
2024-01-16T01:03:29.138Z,1557.00
2024-01-16T01:04:29.387Z,1555.00
2024-01-16T01:05:29.341Z,1556.00
2024-01-16T01:06:29.490Z,1553.00
2024-01-16T01:07:29.444Z,1553.00
2024-01-16T01:08:29.596Z,1553.00
2024-01-16T01:09:29.589Z,1553.00
2024-01-16T01:10:29.661Z,1550.00
2024-01-16T01:11:29.757Z,1546.00
2024-01-16T01:12:29.754Z,1542.00
2024-01-16T01:13:29.826Z,1541.00
2024-01-16T01:14:29.988Z,1537.00
2024-01-16T01:15:30.017Z,1535.00
2024-01-16T01:16:30.088Z,1533.00
2024-01-16T01:17:30.261Z,1529.00
2024-01-16T01:18:30.259Z,1528.00
2024-01-16T01:19:30.480Z,1522.00
2024-01-16T01:20:30.376Z,1523.00
2024-01-16T01:21:30.417Z,1525.00
2024-01-16T01:22:30.471Z,1524.00
2024-01-16T01:23:30.634Z,1522.00
2024-01-16T01:24:30.589Z,1520.00
2024-01-16T01:25:30.702Z,1517.00
2024-01-16T01:26:30.777Z,1518.00
2024-01-16T01:27:30.810Z,1513.00
2024-01-16T01:28:30.885Z,1512.00
2024-01-16T01:29:31.020Z,1511.00
2024-01-16T01:30:31.081Z,1510.00
2024-01-16T01:31:31.098Z,1509.00
2024-01-16T01:32:31.337Z,1508.00
2024-01-16T01:33:31.366Z,1507.00
2024-01-16T01:34:31.285Z,1509.00
2024-01-16T01:35:31.364Z,1510.00
2024-01-16T01:36:31.399Z,1510.00
2024-01-16T01:37:31.435Z,1510.00
2024-01-16T01:38:31.483Z,1507.00
2024-01-16T01:39:31.508Z,1506.00
2024-01-16T01:40:31.617Z,1504.00
2024-01-16T01:41:31.701Z,1501.00
2024-01-16T01:42:31.741Z,1497.00
2024-01-16T01:43:31.753Z,1494.00
2024-01-16T01:44:31.911Z,1490.00
2024-01-16T01:45:31.916Z,1488.00
2024-01-16T01:46:31.920Z,1487.00
2024-01-16T01:47:32.006Z,1485.00
2024-01-16T01:48:32.033Z,1485.00
2024-01-16T01:49:32.061Z,1484.00
2024-01-16T01:50:32.047Z,1483.00
2024-01-16T01:51:32.120Z,1479.00
2024-01-16T01:52:32.140Z,1478.00
2024-01-16T01:53:32.185Z,1475.00
2024-01-16T01:54:32.219Z,1475.00
2024-01-16T01:55:32.226Z,1475.00
2024-01-16T01:56:32.254Z,1475.00
2024-01-16T01:57:32.285Z,1473.00
2024-01-16T01:58:32.305Z,1474.00
2024-01-16T01:59:32.372Z,1471.00
2024-01-16T02:00:32.389Z,1469.00
2024-01-16T02:01:32.338Z,1469.00
2024-01-16T02:02:32.487Z,1467.00
2024-01-16T02:03:32.475Z,1467.00
2024-01-16T02:04:32.451Z,1463.00
2024-01-16T02:05:32.588Z,1465.00
2024-01-16T02:06:32.560Z,1464.00
2024-01-16T02:07:32.518Z,1461.00
2024-01-16T02:08:32.528Z,1460.00
2024-01-16T02:09:32.879Z,1460.00
2024-01-16T02:10:32.569Z,1458.00
2024-01-16T02:11:32.670Z,1457.00
2024-01-16T02:12:32.613Z,1454.00
2024-01-16T02:13:32.600Z,1454.00
2024-01-16T02:14:32.677Z,1456.00
2024-01-16T02:15:32.608Z,1456.00
2024-01-16T02:16:32.618Z,1456.00
2024-01-16T02:17:32.725Z,1455.00
2024-01-16T02:18:32.693Z,1453.00
2024-01-16T02:19:32.751Z,1452.00
2024-01-16T02:20:32.790Z,1445.00
2024-01-16T02:21:32.754Z,1445.00
2024-01-16T02:22:32.712Z,1447.00
2024-01-16T02:23:32.852Z,1447.00
2024-01-16T02:24:32.741Z,1448.00
2024-01-16T02:25:32.774Z,1445.00
2024-01-16T02:26:32.788Z,1444.00
2024-01-16T02:27:32.768Z,1440.00
2024-01-16T02:28:32.773Z,1440.00
2024-01-16T02:29:32.888Z,1436.00
2024-01-16T02:30:32.845Z,1433.00
2024-01-16T02:31:32.812Z,1433.00
2024-01-16T02:32:32.837Z,1434.00
2024-01-16T02:33:32.836Z,1434.00
2024-01-16T02:34:32.949Z,1433.00
2024-01-16T02:35:32.894Z,1429.00
2024-01-16T02:36:32.805Z,1427.00
2024-01-16T02:37:32.802Z,1426.00
2024-01-16T02:38:32.811Z,1423.00
2024-01-16T02:39:32.821Z,1423.00
2024-01-16T02:40:32.842Z,1418.00
2024-01-16T02:41:32.853Z,1421.00
2024-01-16T02:42:32.887Z,1417.00
2024-01-16T02:43:32.852Z,1418.00
2024-01-16T02:44:32.953Z,1421.00
2024-01-16T02:45:32.868Z,1421.00
2024-01-16T02:46:32.852Z,1418.00
2024-01-16T02:47:32.949Z,1414.00
2024-01-16T02:48:32.936Z,1414.00
2024-01-16T02:49:32.959Z,1415.00
2024-01-16T02:50:32.906Z,1413.00
2024-01-16T02:51:32.919Z,1412.00
2024-01-16T02:52:32.933Z,1413.00
2024-01-16T02:53:33.020Z,1407.00
2024-01-16T02:54:32.989Z,1407.00
2024-01-16T02:55:33.903Z,1403.00
2024-01-16T02:56:32.994Z,1397.00
2024-01-16T02:57:32.981Z,1396.00
2024-01-16T02:58:32.988Z,1395.00
2024-01-16T02:59:33.459Z,1394.00
2024-01-16T03:00:32.994Z,1398.00
2024-01-16T03:01:33.004Z,1399.00
2024-01-16T03:02:33.058Z,1394.00
2024-01-16T03:03:33.033Z,1393.00
2024-01-16T03:04:33.068Z,1395.00
2024-01-16T03:05:33.134Z,1395.00
2024-01-16T03:06:33.234Z,1396.00
2024-01-16T03:07:33.088Z,1393.00
2024-01-16T03:08:33.115Z,1392.00
2024-01-16T03:09:33.103Z,1391.00
2024-01-16T03:10:33.114Z,1391.00
2024-01-16T03:11:33.753Z,1386.00
2024-01-16T03:12:33.111Z,1384.00
2024-01-16T03:13:33.151Z,1383.00
2024-01-16T03:14:33.202Z,1380.00
2024-01-16T03:15:33.186Z,1382.00
2024-01-16T03:16:33.180Z,1379.00
2024-01-16T03:17:33.277Z,1376.00
2024-01-16T03:18:33.288Z,1374.00
2024-01-16T03:19:33.253Z,1372.00
2024-01-16T03:20:33.252Z,1373.00
2024-01-16T03:21:33.247Z,1373.00
2024-01-16T03:22:33.910Z,1373.00
2024-01-16T03:23:33.334Z,1372.00
2024-01-16T03:24:33.293Z,1372.00
2024-01-16T03:25:33.287Z,1371.00
2024-01-16T03:26:33.417Z,1368.00
2024-01-16T03:27:33.324Z,1366.00
2024-01-16T03:28:33.335Z,1363.00
2024-01-16T03:29:33.557Z,1361.00
2024-01-16T03:30:33.479Z,1361.00
2024-01-16T03:31:33.440Z,1366.00
2024-01-16T03:32:33.533Z,1364.00
2024-01-16T03:33:33.540Z,1364.00
2024-01-16T03:34:33.529Z,1362.00
2024-01-16T03:35:33.527Z,1363.00
2024-01-16T03:36:33.496Z,1363.00
2024-01-16T03:37:33.518Z,1362.00
2024-01-16T03:38:33.619Z,1362.00
2024-01-16T03:39:33.545Z,1362.00
2024-01-16T03:40:33.590Z,1361.00
2024-01-16T03:41:33.616Z,1359.00
2024-01-16T03:42:33.628Z,1358.00
2024-01-16T03:43:33.626Z,1358.00
2024-01-16T03:44:33.810Z,1360.00
2024-01-16T03:45:33.687Z,1360.00
2024-01-16T03:46:33.664Z,1359.00
2024-01-16T03:47:33.753Z,1357.00
2024-01-16T03:48:33.830Z,1356.00
2024-01-16T03:49:34.012Z,1358.00
2024-01-16T03:50:33.851Z,1354.00
2024-01-16T03:51:33.825Z,1352.00
2024-01-16T03:52:33.832Z,1352.00
2024-01-16T03:53:33.952Z,1349.00
2024-01-16T03:54:33.870Z,1347.00
2024-01-16T03:55:34.056Z,1346.00
2024-01-16T03:56:33.986Z,1345.00
2024-01-16T03:57:33.942Z,1343.00
2024-01-16T03:58:33.947Z,1339.00
2024-01-16T03:59:34.053Z,1341.00
2024-01-16T04:00:33.981Z,1343.00
2024-01-16T04:01:34.027Z,1340.00
2024-01-16T04:02:34.144Z,1340.00
2024-01-16T04:03:34.105Z,1340.00
2024-01-16T04:04:34.046Z,1341.00
2024-01-16T04:05:34.258Z,1340.00
2024-01-16T04:06:34.188Z,1338.00
2024-01-16T04:07:34.106Z,1336.00
2024-01-16T04:08:34.221Z,1334.00
2024-01-16T04:09:34.451Z,1332.00
2024-01-16T04:10:34.243Z,1331.00
2024-01-16T04:11:34.328Z,1330.00
2024-01-16T04:12:34.292Z,1329.00
2024-01-16T04:13:34.286Z,1328.00
2024-01-16T04:14:34.372Z,1329.00
2024-01-16T04:15:34.371Z,1326.00
2024-01-16T04:16:34.380Z,1323.00
2024-01-16T04:17:34.470Z,1321.00
2024-01-16T04:18:34.550Z,1322.00
2024-01-16T04:19:34.513Z,1320.00
2024-01-16T04:20:34.482Z,1315.00
2024-01-16T04:21:34.518Z,1312.00
2024-01-16T04:22:34.544Z,1311.00
2024-01-16T04:23:34.720Z,1311.00
2024-01-16T04:24:34.597Z,1312.00
2024-01-16T04:25:34.636Z,1311.00
2024-01-16T04:26:34.674Z,1313.00
2024-01-16T04:27:34.703Z,1311.00
2024-01-16T04:28:34.722Z,1310.00
2024-01-16T04:29:34.757Z,1310.00
2024-01-16T04:30:34.833Z,1310.00
2024-01-16T04:31:34.838Z,1309.00
2024-01-16T04:32:34.935Z,1308.00
2024-01-16T04:33:35.064Z,1305.00
2024-01-16T04:34:34.985Z,1302.00
2024-01-16T04:35:42.296Z,1293.00
2024-01-16T04:36:42.205Z,1299.00
2024-01-16T04:37:42.207Z,1295.00
2024-01-16T04:38:42.344Z,1288.00
2024-01-16T04:39:42.213Z,1286.00
2024-01-16T04:40:42.230Z,1287.00
2024-01-16T04:41:42.290Z,1289.00
2024-01-16T04:42:42.268Z,1290.00
2024-01-16T04:43:42.260Z,1290.00
2024-01-16T04:44:42.328Z,1288.00
2024-01-16T04:45:42.243Z,1286.00
2024-01-16T04:46:42.233Z,1287.00
2024-01-16T04:47:42.406Z,1287.00
2024-01-16T04:48:42.270Z,1286.00
2024-01-16T04:49:42.312Z,1286.00
2024-01-16T04:50:42.299Z,1280.00
2024-01-16T04:51:42.224Z,1279.00
2024-01-16T04:52:42.281Z,1282.00
2024-01-16T04:53:42.312Z,1283.00
2024-01-16T04:54:42.371Z,1281.00
2024-01-16T04:55:42.261Z,1280.00
2024-01-16T04:56:42.275Z,1278.00
2024-01-16T04:57:42.251Z,1275.00
2024-01-16T04:58:42.259Z,1277.00
2024-01-16T04:59:42.299Z,1277.00
2024-01-16T05:00:42.254Z,1271.00
2024-01-16T05:01:42.269Z,1270.00
2024-01-16T05:02:42.306Z,1271.00
2024-01-16T05:03:42.379Z,1275.00
2024-01-16T05:04:42.359Z,1273.00
2024-01-16T05:05:42.359Z,1272.00
2024-01-16T05:06:42.408Z,1270.00
2024-01-16T05:07:42.339Z,1269.00
2024-01-16T05:08:42.427Z,1266.00
2024-01-16T05:09:42.317Z,1262.00
2024-01-16T05:10:44.892Z,1262.00
2024-01-16T05:11:42.368Z,1265.00
2024-01-16T05:12:42.280Z,1267.00
2024-01-16T05:13:42.293Z,1265.00
2024-01-16T05:14:42.423Z,1265.00
2024-01-16T05:15:42.325Z,1264.00
2024-01-16T05:16:42.285Z,1263.00
2024-01-16T05:17:42.529Z,1263.00
2024-01-16T05:18:42.359Z,1259.00
2024-01-16T05:19:42.318Z,1259.00
2024-01-16T05:20:42.343Z,1258.00
2024-01-16T05:21:42.316Z,1258.00
2024-01-16T05:22:42.334Z,1257.00
2024-01-16T05:23:42.351Z,1254.00
2024-01-16T05:24:42.370Z,1252.00
2024-01-16T05:25:42.353Z,1246.00
2024-01-16T05:26:42.350Z,1246.00
2024-01-16T05:27:42.320Z,1247.00
2024-01-16T05:28:42.330Z,1247.00
2024-01-16T05:29:44.526Z,1245.00
2024-01-16T05:30:42.592Z,1246.00
2024-01-16T05:31:42.669Z,1244.00
2024-01-16T05:32:42.918Z,1245.00
2024-01-16T05:33:42.678Z,1242.00
2024-01-16T05:34:42.672Z,1238.00
2024-01-16T05:35:42.746Z,1237.00
2024-01-16T05:36:42.739Z,1239.00
2024-01-16T05:37:42.762Z,1239.00
2024-01-16T05:38:42.892Z,1240.00
2024-01-16T05:39:42.869Z,1241.00
2024-01-16T05:40:42.901Z,1237.00
2024-01-16T05:41:43.019Z,1238.00
2024-01-16T05:42:42.995Z,1236.00
2024-01-16T05:43:43.045Z,1236.00
2024-01-16T05:44:43.501Z,1236.00
2024-01-16T05:45:43.135Z,1236.00
2024-01-16T05:46:43.209Z,1238.00
2024-01-16T05:47:43.290Z,1233.00
2024-01-16T05:48:43.377Z,1231.00
2024-01-16T05:49:43.499Z,1226.00
2024-01-16T05:50:43.444Z,1227.00
2024-01-16T05:51:43.444Z,1223.00
2024-01-16T05:52:45.532Z,1221.00
2024-01-16T05:53:43.541Z,1222.00
2024-01-16T05:54:43.527Z,1219.00
2024-01-16T05:55:43.481Z,1213.00
2024-01-16T05:56:43.518Z,1213.00
2024-01-16T05:57:43.473Z,1211.00
2024-01-16T05:58:43.517Z,1213.00
2024-01-16T05:59:43.506Z,1214.00
2024-01-16T06:00:43.544Z,1210.00
2024-01-16T06:01:43.469Z,1207.00
2024-01-16T06:02:43.527Z,1206.00
2024-01-16T06:03:43.567Z,1203.00
2024-01-16T06:04:43.505Z,1203.00
2024-01-16T06:05:43.574Z,1198.00
2024-01-16T06:06:43.551Z,1195.00
2024-01-16T06:07:43.506Z,1189.00
2024-01-16T06:08:43.571Z,1187.00
2024-01-16T06:09:43.577Z,1186.00
2024-01-16T06:10:43.509Z,1182.00
2024-01-16T06:11:43.738Z,1180.00
2024-01-16T06:12:43.502Z,1177.00
2024-01-16T06:13:43.512Z,1180.00
2024-01-16T06:14:43.562Z,1177.00
2024-01-16T06:15:43.494Z,1180.00
2024-01-16T06:16:43.545Z,1178.00
2024-01-16T06:17:43.688Z,1181.00
2024-01-16T06:18:43.611Z,1184.00
2024-01-16T06:19:43.946Z,1188.00
2024-01-16T06:20:43.510Z,1186.00
2024-01-16T06:21:43.501Z,1184.00
2024-01-16T06:22:43.530Z,1183.00
2024-01-16T06:23:43.581Z,1184.00
2024-01-16T06:24:43.565Z,1183.00
2024-01-16T06:25:43.537Z,1184.00
2024-01-16T06:26:43.584Z,1179.00
2024-01-16T06:27:43.515Z,1180.00
2024-01-16T06:28:43.530Z,1179.00
2024-01-16T06:29:43.951Z,1177.00
2024-01-16T06:30:43.626Z,1174.00
2024-01-16T06:31:43.508Z,1175.00
2024-01-16T06:32:43.711Z,1171.00
2024-01-16T06:33:43.618Z,1170.00
2024-01-16T06:34:43.556Z,1170.00
2024-01-16T06:35:43.573Z,1167.00
2024-01-16T06:36:43.545Z,1165.00
2024-01-16T06:37:43.505Z,1163.00
2024-01-16T06:38:43.570Z,1162.00
2024-01-16T06:39:43.516Z,1162.00
2024-01-16T06:40:43.537Z,1162.00
2024-01-16T06:41:43.537Z,1161.00
2024-01-16T06:42:43.509Z,1160.00
2024-01-16T06:43:43.548Z,1161.00
2024-01-16T06:44:43.595Z,1174.00
2024-01-16T06:45:43.570Z,1193.00
2024-01-16T06:46:43.576Z,1201.00
2024-01-16T06:47:43.761Z,1209.00
2024-01-16T06:48:43.917Z,1220.00
2024-01-16T06:49:43.924Z,1231.00
2024-01-16T06:50:43.875Z,1246.00
2024-01-16T06:51:43.926Z,1249.00
2024-01-16T06:52:43.980Z,1292.00
2024-01-16T06:53:44.086Z,1297.00
2024-01-16T06:54:44.082Z,1305.00
2024-01-16T06:55:44.100Z,1294.00
2024-01-16T06:56:44.113Z,1287.00
2024-01-16T06:57:44.172Z,1274.00
2024-01-16T06:58:44.196Z,1212.00
2024-01-16T06:59:44.279Z,1216.00
2024-01-16T07:00:44.380Z,1239.00
2024-01-16T07:01:44.229Z,1229.00
2024-01-16T07:02:44.273Z,1155.00
2024-01-16T07:03:44.272Z,1118.00
2024-01-16T07:04:44.480Z,1095.00
2024-01-16T07:05:44.475Z,1093.00
2024-01-16T07:06:44.413Z,1089.00
2024-01-16T07:07:44.456Z,1070.00
2024-01-16T07:08:44.583Z,1055.00
2024-01-16T07:09:44.474Z,1046.00
2024-01-16T07:10:44.489Z,1044.00
2024-01-16T07:11:44.582Z,1041.00
2024-01-16T07:12:44.542Z,1037.00
2024-01-16T07:13:44.531Z,1037.00
2024-01-16T07:14:44.661Z,1026.00
2024-01-16T07:15:44.627Z,1006.00
2024-01-16T07:16:44.675Z,1011.00
2024-01-16T07:17:44.796Z,1012.00
2024-01-16T07:18:48.051Z,1013.00
2024-01-16T07:19:44.797Z,1007.00
2024-01-16T07:20:44.837Z,1001.00
2024-01-16T07:21:45.375Z,991.00
2024-01-16T07:22:44.724Z,984.00
2024-01-16T07:23:44.801Z,982.00
2024-01-16T07:24:44.746Z,973.00
2024-01-16T07:25:44.718Z,969.00
2024-01-16T07:26:44.776Z,959.00
2024-01-16T07:27:44.738Z,951.00
2024-01-16T07:28:44.770Z,944.00
2024-01-16T07:29:44.775Z,944.00
2024-01-16T07:30:44.811Z,938.00
2024-01-16T07:31:44.732Z,933.00
2024-01-16T07:32:44.900Z,926.00
2024-01-16T07:33:44.890Z,924.00
2024-01-16T07:34:44.894Z,919.00
2024-01-16T07:35:44.801Z,909.00
2024-01-16T07:36:44.776Z,909.00
2024-01-16T07:37:44.772Z,903.00
2024-01-16T07:38:44.841Z,899.00
2024-01-16T07:39:44.780Z,893.00
2024-01-16T07:40:44.764Z,887.00
2024-01-16T07:41:44.776Z,881.00
2024-01-16T07:42:44.813Z,870.00
2024-01-16T07:43:47.536Z,867.00
2024-01-16T07:44:44.906Z,864.00
2024-01-16T07:45:44.751Z,863.00
2024-01-16T07:46:44.756Z,858.00
2024-01-16T07:47:44.967Z,842.00
2024-01-16T07:48:44.947Z,835.00
2024-01-16T07:49:44.860Z,828.00
2024-01-16T07:50:44.828Z,823.00
2024-01-16T07:51:44.821Z,828.00
2024-01-16T07:52:44.781Z,819.00
2024-01-16T07:53:44.822Z,881.00
2024-01-16T07:54:44.842Z,910.00
2024-01-16T07:55:44.820Z,1048.00
2024-01-16T07:56:44.936Z,1021.00
2024-01-16T07:57:44.820Z,1066.00
2024-01-16T07:58:44.799Z,1250.00
2024-01-16T07:59:44.837Z,1274.00
2024-01-16T08:00:44.822Z,1267.00
2024-01-16T08:01:44.759Z,1321.00
2024-01-16T08:02:44.860Z,1427.00
2024-01-16T08:03:44.862Z,1445.00
2024-01-16T08:04:44.816Z,1514.00
2024-01-16T08:05:44.886Z,1533.00
2024-01-16T08:06:44.853Z,1585.00
2024-01-16T08:07:44.844Z,1629.00
2024-01-16T08:08:44.810Z,1693.00
2024-01-16T08:09:44.857Z,1699.00
2024-01-16T08:10:44.826Z,1712.00
2024-01-16T08:11:44.845Z,1752.00
2024-01-16T08:12:44.809Z,1791.00
2024-01-16T08:13:44.803Z,1830.00
2024-01-16T08:14:44.918Z,1851.00
2024-01-16T08:15:44.878Z,1877.00
2024-01-16T08:16:44.940Z,1923.00
2024-01-16T08:17:45.206Z,1962.00
2024-01-16T08:18:45.241Z,1984.00
2024-01-16T08:19:45.145Z,2035.00
2024-01-16T08:20:45.391Z,2027.00
2024-01-16T08:21:45.272Z,2045.00
2024-01-16T08:22:45.383Z,2074.00
2024-01-16T08:23:45.445Z,2104.00
2024-01-16T08:24:45.889Z,2157.00
2024-01-16T08:25:45.514Z,2175.00
2024-01-16T08:26:45.621Z,2192.00
2024-01-16T08:27:45.597Z,2210.00
2024-01-16T08:28:45.624Z,2245.00
2024-01-16T08:29:45.672Z,2268.00
2024-01-16T08:30:45.700Z,2339.00
2024-01-16T08:31:45.707Z,2374.00
2024-01-16T08:32:45.837Z,2378.00
2024-01-16T08:33:47.403Z,2389.00
2024-01-16T08:34:48.229Z,2405.00
2024-01-16T08:35:46.016Z,2457.00
2024-01-16T08:36:46.009Z,2490.00
2024-01-16T08:37:46.070Z,2507.00
2024-01-16T08:38:46.131Z,2580.00
2024-01-16T08:39:46.433Z,2605.00
2024-01-16T08:40:46.032Z,2631.00
2024-01-16T08:41:46.154Z,2665.00
2024-01-16T08:42:46.091Z,2690.00
2024-01-16T08:43:46.179Z,2720.00
2024-01-16T08:44:46.489Z,2771.00
2024-01-16T08:45:46.318Z,2778.00
2024-01-16T08:46:46.391Z,2793.00
2024-01-16T08:47:46.737Z,2793.00
2024-01-16T08:48:46.811Z,2793.00
2024-01-16T08:49:47.030Z,2731.00
2024-01-16T08:50:46.734Z,2702.00
2024-01-16T08:51:46.705Z,2191.00
2024-01-16T08:52:46.715Z,1672.00
2024-01-16T08:53:46.774Z,1599.00
2024-01-16T08:54:46.763Z,1385.00
2024-01-16T08:55:46.833Z,1373.00
2024-01-16T08:56:46.879Z,1770.00
2024-01-16T08:57:46.872Z,1970.00
2024-01-16T08:58:46.873Z,1973.00
2024-01-16T08:59:46.975Z,1888.00
2024-01-16T09:00:46.970Z,1884.00
2024-01-16T09:01:47.050Z,1873.00
2024-01-16T09:02:47.139Z,1873.00
2024-01-16T09:03:47.052Z,1882.00
2024-01-16T09:04:47.527Z,1897.00
2024-01-16T09:05:47.315Z,1912.00
2024-01-16T09:06:47.572Z,1926.00
2024-01-16T09:07:48.233Z,1957.00
2024-01-16T09:08:47.339Z,1968.00
2024-01-16T09:09:47.471Z,1978.00
2024-01-16T09:10:47.255Z,2005.00
2024-01-16T09:11:47.338Z,2015.00
2024-01-16T09:12:47.272Z,2020.00
2024-01-16T09:13:47.263Z,2022.00
2024-01-16T09:14:47.462Z,2033.00
2024-01-16T09:15:47.285Z,2043.00
2024-01-16T09:16:47.253Z,2064.00
2024-01-16T09:17:47.403Z,2069.00
2024-01-16T09:18:47.373Z,2073.00
2024-01-16T09:19:47.265Z,2080.00
2024-01-16T09:20:47.292Z,2086.00
2024-01-16T09:21:47.261Z,2088.00
2024-01-16T09:22:47.333Z,2091.00
2024-01-16T09:23:47.390Z,2097.00
2024-01-16T09:24:47.953Z,2106.00
2024-01-16T09:25:48.827Z,2114.00
2024-01-16T09:26:47.650Z,2119.00
2024-01-16T09:27:47.637Z,2128.00
2024-01-16T09:28:47.694Z,2135.00
2024-01-16T09:29:47.808Z,2143.00
2024-01-16T09:30:47.883Z,2146.00
2024-01-16T09:31:47.899Z,2150.00
2024-01-16T09:32:48.015Z,2159.00
2024-01-16T09:33:48.049Z,2167.00
2024-01-16T09:34:48.093Z,2168.00
2024-01-16T09:35:48.120Z,2167.00
2024-01-16T09:36:48.104Z,2168.00
2024-01-16T09:37:48.206Z,2175.00
2024-01-16T09:38:48.356Z,2182.00
2024-01-16T09:39:48.495Z,2199.00
2024-01-16T09:40:48.331Z,2216.00
2024-01-16T09:41:49.060Z,2228.00
2024-01-16T09:42:48.444Z,2226.00
2024-01-16T09:43:48.552Z,2123.00
2024-01-16T09:44:48.998Z,2184.00
2024-01-16T09:45:48.660Z,2067.00
2024-01-16T09:46:48.720Z,1996.00
2024-01-16T09:47:50.637Z,1757.00
2024-01-16T09:48:48.927Z,1822.00
2024-01-16T09:49:49.065Z,1816.00
2024-01-16T09:50:48.889Z,1678.00
2024-01-16T09:51:48.899Z,1596.00
2024-01-16T09:52:48.921Z,1570.00
2024-01-16T09:53:49.039Z,1475.00
2024-01-16T09:54:49.454Z,1501.00
2024-01-16T09:55:49.000Z,1501.00
2024-01-16T09:56:49.043Z,1606.00
2024-01-16T09:57:49.013Z,1314.00
2024-01-16T09:58:49.066Z,1500.00
2024-01-16T09:59:49.564Z,1225.00
2024-01-16T10:00:49.184Z,1039.00
2024-01-16T10:01:49.248Z,1324.00
2024-01-16T10:02:49.350Z,1428.00
2024-01-16T10:03:51.013Z,1169.00
2024-01-16T10:04:49.392Z,1211.00
2024-01-16T10:05:49.381Z,1135.00
2024-01-16T10:06:49.470Z,1098.00
2024-01-16T10:07:49.412Z,1177.00
2024-01-16T10:08:49.385Z,978.00
2024-01-16T10:09:49.443Z,1054.00
2024-01-16T10:10:50.359Z,1133.00
2024-01-16T10:11:49.531Z,1130.00
2024-01-16T10:12:49.488Z,1032.00
2024-01-16T10:13:49.497Z,938.00
2024-01-16T10:14:50.050Z,1149.00
2024-01-16T10:15:49.643Z,990.00
2024-01-16T10:16:49.656Z,1162.00
2024-01-16T10:17:49.828Z,920.00
2024-01-16T10:18:49.894Z,984.00
2024-01-16T10:19:50.550Z,963.00
2024-01-16T10:20:49.892Z,942.00
2024-01-16T10:21:49.839Z,1012.00
2024-01-16T10:22:49.845Z,1071.00
2024-01-16T10:23:49.960Z,1007.00
2024-01-16T10:24:50.442Z,1091.00
2024-01-16T10:25:49.992Z,914.00
2024-01-16T10:26:50.099Z,833.00
2024-01-16T10:27:50.094Z,857.00
2024-01-16T10:28:50.110Z,849.00
2024-01-16T10:29:50.962Z,903.00
2024-01-16T10:30:50.285Z,952.00
2024-01-16T10:31:50.256Z,1098.00
2024-01-16T10:32:50.371Z,841.00
2024-01-16T10:33:50.438Z,1013.00
2024-01-16T10:34:50.510Z,983.00
2024-01-16T10:35:50.485Z,1010.00
2024-01-16T10:36:50.471Z,1048.00
2024-01-16T10:37:51.518Z,982.00
2024-01-16T10:38:50.601Z,919.00
2024-01-16T10:39:50.950Z,867.00
2024-01-16T10:40:50.647Z,951.00
2024-01-16T10:41:50.712Z,931.00
2024-01-16T10:42:50.773Z,919.00
2024-01-16T10:43:50.771Z,882.00
2024-01-16T10:44:51.057Z,1121.00
2024-01-16T10:45:50.902Z,1175.00
2024-01-16T10:46:51.248Z,1167.00
2024-01-16T10:47:51.057Z,1243.00
2024-01-16T10:48:51.080Z,1385.00
2024-01-16T10:49:51.562Z,1619.00
2024-01-16T10:50:51.134Z,1649.00
2024-01-16T10:51:51.200Z,1772.00
2024-01-16T10:52:51.136Z,1746.00
2024-01-16T10:53:51.189Z,1733.00
2024-01-16T10:54:51.500Z,1811.00
2024-01-16T10:55:51.276Z,1845.00
2024-01-16T10:56:51.405Z,1870.00
2024-01-16T10:57:51.336Z,1944.00
2024-01-16T10:58:51.344Z,1960.00
2024-01-16T10:59:51.537Z,1977.00
2024-01-16T11:00:51.483Z,2040.00
2024-01-16T11:01:51.560Z,2067.00
2024-01-16T11:02:51.756Z,2088.00
2024-01-16T11:03:51.765Z,2114.00
2024-01-16T11:04:52.002Z,2153.00
2024-01-16T11:05:51.783Z,2249.00
2024-01-16T11:06:51.729Z,2267.00
2024-01-16T11:07:51.767Z,2290.00
2024-01-16T11:08:51.732Z,2358.00
2024-01-16T11:09:51.723Z,2376.00
2024-01-16T11:10:51.725Z,2420.00
2024-01-16T11:11:51.809Z,2433.00
2024-01-16T11:12:51.897Z,2430.00
2024-01-16T11:13:51.874Z,2439.00
2024-01-16T11:14:52.035Z,2462.00
2024-01-16T11:15:52.034Z,2501.00
2024-01-16T11:16:52.083Z,2533.00
2024-01-16T11:17:52.261Z,2569.00
2024-01-16T11:18:52.248Z,2578.00
2024-01-16T11:21:04.193Z,2590.00
2024-01-16T11:21:53.350Z,2606.00
2024-01-16T11:22:52.448Z,2620.00
2024-01-16T11:23:52.354Z,2640.00
2024-01-16T11:24:52.518Z,2664.00
2024-01-16T11:25:52.305Z,2689.00
2024-01-16T11:26:52.335Z,2758.00
2024-01-16T11:27:52.430Z,2777.00
2024-01-16T11:28:52.320Z,2804.00
2024-01-16T11:29:52.374Z,2875.00
2024-01-16T11:30:52.355Z,2897.00
2024-01-16T11:31:56.495Z,2918.00
2024-01-16T11:32:53.413Z,2958.00
2024-01-16T11:33:52.523Z,2972.00
2024-01-16T11:34:52.556Z,3022.00
2024-01-16T11:35:52.366Z,3079.00
2024-01-16T11:36:52.294Z,3092.00
2024-01-16T11:37:52.301Z,3111.00
2024-01-16T11:38:52.422Z,3152.00
2024-01-16T11:39:52.500Z,3179.00
2024-01-16T11:40:52.309Z,3196.00
2024-01-16T11:41:52.427Z,3252.00
2024-01-16T11:42:52.316Z,3289.00
2024-01-16T11:43:52.467Z,3316.00
2024-01-16T11:44:52.471Z,3224.00
2024-01-16T11:45:52.374Z,3177.00
2024-01-16T11:46:52.344Z,2961.00
2024-01-16T11:47:52.461Z,3015.00
2024-01-16T11:48:52.526Z,2074.00
2024-01-16T11:49:52.368Z,1917.00
2024-01-16T11:50:52.412Z,2616.00
2024-01-16T11:51:52.326Z,1713.00
2024-01-16T11:52:52.380Z,1090.00
2024-01-16T11:53:52.374Z,1273.00
2024-01-16T11:54:52.349Z,1455.00
2024-01-16T11:55:52.405Z,991.00
2024-01-16T11:56:52.431Z,899.00
2024-01-16T11:57:52.445Z,1623.00
2024-01-16T11:58:53.469Z,1735.00
2024-01-16T11:59:52.615Z,1890.00
2024-01-16T12:00:52.648Z,1796.00
2024-01-16T12:01:53.466Z,1786.00
2024-01-16T12:02:52.773Z,1691.00
2024-01-16T12:03:52.700Z,1665.00
2024-01-16T12:04:52.779Z,1633.00
2024-01-16T12:05:52.889Z,1603.00
2024-01-16T12:06:52.991Z,1576.00
2024-01-16T12:07:52.880Z,1557.00
2024-01-16T12:08:52.942Z,1551.00